sensor_id;sensor_type;location;lat;lon;timestamp;P1;durP1;ratioP1;P2;durP2;ratioP2
5876;SDS011;2964;42.144;24.730;2023-08-20T00:00:18;14.30;;;13.10;;
5876;SDS011;2964;42.144;24.730;2023-08-20T00:02:45;15.55;;;14.07;;
5876;SDS011;2964;42.144;24.730;2023-08-20T00:05:15;15.60;;;13.93;;
5876;SDS011;2964;42.144;24.730;2023-08-20T00:07:42;14.07;;;12.88;;
5876;SDS011;2964;42.144;24.730;2023-08-20T00:10:09;14.80;;;13.38;;
5876;SDS011;2964;42.144;24.730;2023-08-20T00:12:36;14.90;;;13.48;;
5876;SDS011;2964;42.144;24.730;2023-08-20T00:15:03;14.02;;;12.63;;
5876;SDS011;2964;42.144;24.730;2023-08-20T00:17:31;14.50;;;13.07;;
5876;SDS011;2964;42.144;24.730;2023-08-20T00:19:59;15.25;;;12.82;;
5876;SDS011;2964;42.144;24.730;2023-08-20T00:22:28;14.98;;;13.43;;
5876;SDS011;2964;42.144;24.730;2023-08-20T00:24:55;17.40;;;14.40;;
5876;SDS011;2964;42.144;24.730;2023-08-20T00:27:22;15.25;;;13.80;;
5876;SDS011;2964;42.144;24.730;2023-08-20T00:29:49;13.88;;;12.43;;
5876;SDS011;2964;42.144;24.730;2023-08-20T00:32:15;15.13;;;13.45;;
5876;SDS011;2964;42.144;24.730;2023-08-20T00:34:42;14.40;;;12.88;;
5876;SDS011;2964;42.144;24.730;2023-08-20T00:37:09;14.00;;;12.80;;
5876;SDS011;2964;42.144;24.730;2023-08-20T00:39:38;13.27;;;12.07;;
5876;SDS011;2964;42.144;24.730;2023-08-20T00:42:05;16.20;;;13.00;;
5876;SDS011;2964;42.144;24.730;2023-08-20T00:44:32;14.27;;;13.13;;
5876;SDS011;2964;42.144;24.730;2023-08-20T00:46:59;14.97;;;13.57;;
5876;SDS011;2964;42.144;24.730;2023-08-20T00:49:26;14.57;;;12.67;;
5876;SDS011;2964;42.144;24.730;2023-08-20T00:51:53;14.83;;;13.43;;
5876;SDS011;2964;42.144;24.730;2023-08-20T00:54:20;14.77;;;13.40;;
5876;SDS011;2964;42.144;24.730;2023-08-20T00:56:50;15.90;;;13.67;;
5876;SDS011;2964;42.144;24.730;2023-08-20T00:59:17;14.53;;;13.30;;
5876;SDS011;2964;42.144;24.730;2023-08-20T01:01:44;14.20;;;13.00;;
5876;SDS011;2964;42.144;24.730;2023-08-20T01:04:11;15.47;;;14.03;;
5876;SDS011;2964;42.144;24.730;2023-08-20T01:06:39;15.53;;;14.03;;
5876;SDS011;2964;42.144;24.730;2023-08-20T01:09:23;15.30;;;13.77;;
5876;SDS011;2964;42.144;24.730;2023-08-20T01:12:02;14.43;;;13.17;;
5876;SDS011;2964;42.144;24.730;2023-08-20T01:14:29;15.77;;;13.57;;
5876;SDS011;2964;42.144;24.730;2023-08-20T01:16:56;14.10;;;13.00;;
5876;SDS011;2964;42.144;24.730;2023-08-20T01:19:23;16.70;;;14.60;;
5876;SDS011;2964;42.144;24.730;2023-08-20T01:21:55;15.53;;;14.37;;
5876;SDS011;2964;42.144;24.730;2023-08-20T01:24:36;15.07;;;13.93;;
5876;SDS011;2964;42.144;24.730;2023-08-20T01:27:16;14.67;;;13.40;;
5876;SDS011;2964;42.144;24.730;2023-08-20T01:29:54;14.83;;;13.47;;
5876;SDS011;2964;42.144;24.730;2023-08-20T01:32:22;17.33;;;14.23;;
5876;SDS011;2964;42.144;24.730;2023-08-20T01:34:50;16.10;;;14.67;;
5876;SDS011;2964;42.144;24.730;2023-08-20T01:37:18;16.27;;;14.70;;
5876;SDS011;2964;42.144;24.730;2023-08-20T01:39:44;15.03;;;13.60;;
5876;SDS011;2964;42.144;24.730;2023-08-20T01:42:11;18.40;;;14.67;;
5876;SDS011;2964;42.144;24.730;2023-08-20T01:44:38;16.57;;;15.23;;
5876;SDS011;2964;42.144;24.730;2023-08-20T01:47:06;16.67;;;14.97;;
5876;SDS011;2964;42.144;24.730;2023-08-20T01:49:33;24.57;;;15.43;;
5876;SDS011;2964;42.144;24.730;2023-08-20T01:51:59;16.43;;;14.87;;
5876;SDS011;2964;42.144;24.730;2023-08-20T01:54:26;17.80;;;15.43;;
5876;SDS011;2964;42.144;24.730;2023-08-20T01:56:53;15.90;;;14.43;;
5876;SDS011;2964;42.144;24.730;2023-08-20T01:59:21;16.67;;;14.97;;
5876;SDS011;2964;42.144;24.730;2023-08-20T02:01:48;16.30;;;14.60;;
5876;SDS011;2964;42.144;24.730;2023-08-20T02:04:16;16.53;;;15.00;;
5876;SDS011;2964;42.144;24.730;2023-08-20T02:06:43;16.90;;;14.87;;
5876;SDS011;2964;42.144;24.730;2023-08-20T02:09:10;15.67;;;14.33;;
5876;SDS011;2964;42.144;24.730;2023-08-20T02:11:36;17.47;;;15.67;;
5876;SDS011;2964;42.144;24.730;2023-08-20T02:14:03;15.33;;;14.03;;
5876;SDS011;2964;42.144;24.730;2023-08-20T02:16:30;16.73;;;15.03;;
5876;SDS011;2964;42.144;24.730;2023-08-20T02:18:56;15.77;;;14.23;;
5876;SDS011;2964;42.144;24.730;2023-08-20T02:21:24;15.50;;;14.17;;
5876;SDS011;2964;42.144;24.730;2023-08-20T02:23:51;16.10;;;14.40;;
5876;SDS011;2964;42.144;24.730;2023-08-20T02:26:18;16.57;;;14.43;;
5876;SDS011;2964;42.144;24.730;2023-08-20T02:28:44;14.60;;;13.20;;
5876;SDS011;2964;42.144;24.730;2023-08-20T02:31:11;15.60;;;13.80;;
5876;SDS011;2964;42.144;24.730;2023-08-20T02:33:37;14.63;;;13.20;;
5876;SDS011;2964;42.144;24.730;2023-08-20T02:36:04;15.17;;;13.87;;
5876;SDS011;2964;42.144;24.730;2023-08-20T02:38:33;16.40;;;13.43;;
5876;SDS011;2964;42.144;24.730;2023-08-20T02:41:00;14.60;;;13.23;;
5876;SDS011;2964;42.144;24.730;2023-08-20T02:43:28;13.87;;;12.47;;
5876;SDS011;2964;42.144;24.730;2023-08-20T02:45:55;14.03;;;12.70;;
5876;SDS011;2964;42.144;24.730;2023-08-20T02:48:21;16.17;;;12.87;;
5876;SDS011;2964;42.144;24.730;2023-08-20T02:50:52;14.13;;;13.00;;
5876;SDS011;2964;42.144;24.730;2023-08-20T02:53:18;14.17;;;12.97;;
5876;SDS011;2964;42.144;24.730;2023-08-20T02:55:46;12.87;;;11.97;;
5876;SDS011;2964;42.144;24.730;2023-08-20T02:58:13;13.90;;;12.90;;
5876;SDS011;2964;42.144;24.730;2023-08-20T03:00:40;15.03;;;13.60;;
5876;SDS011;2964;42.144;24.730;2023-08-20T03:03:07;14.27;;;12.90;;
5876;SDS011;2964;42.144;24.730;2023-08-20T03:05:34;13.97;;;12.77;;
5876;SDS011;2964;42.144;24.730;2023-08-20T03:08:02;14.27;;;12.87;;
5876;SDS011;2964;42.144;24.730;2023-08-20T03:10:29;13.50;;;12.30;;
5876;SDS011;2964;42.144;24.730;2023-08-20T03:12:58;13.43;;;12.03;;
5876;SDS011;2964;42.144;24.730;2023-08-20T03:15:26;14.00;;;12.40;;
5876;SDS011;2964;42.144;24.730;2023-08-20T03:17:52;12.20;;;11.30;;
5876;SDS011;2964;42.144;24.730;2023-08-20T03:20:19;12.60;;;11.67;;
5876;SDS011;2964;42.144;24.730;2023-08-20T03:22:45;13.37;;;11.10;;
5876;SDS011;2964;42.144;24.730;2023-08-20T03:25:12;11.97;;;10.87;;
5876;SDS011;2964;42.144;24.730;2023-08-20T03:27:39;12.73;;;11.73;;
5876;SDS011;2964;42.144;24.730;2023-08-20T03:30:07;12.47;;;11.37;;
5876;SDS011;2964;42.144;24.730;2023-08-20T03:32:34;12.77;;;11.77;;
5876;SDS011;2964;42.144;24.730;2023-08-20T03:35:01;12.23;;;11.07;;
5876;SDS011;2964;42.144;24.730;2023-08-20T03:37:28;11.93;;;11.03;;
5876;SDS011;2964;42.144;24.730;2023-08-20T03:39:55;12.73;;;11.63;;
5876;SDS011;2964;42.144;24.730;2023-08-20T03:42:21;12.10;;;10.90;;
5876;SDS011;2964;42.144;24.730;2023-08-20T03:44:48;12.10;;;11.07;;
5876;SDS011;2964;42.144;24.730;2023-08-20T03:47:16;11.27;;;10.27;;
5876;SDS011;2964;42.144;24.730;2023-08-20T03:49:45;11.73;;;10.87;;
5876;SDS011;2964;42.144;24.730;2023-08-20T03:52:12;11.50;;;10.60;;
5876;SDS011;2964;42.144;24.730;2023-08-20T03:54:38;12.03;;;10.67;;
5876;SDS011;2964;42.144;24.730;2023-08-20T03:57:05;11.87;;;10.63;;
5876;SDS011;2964;42.144;24.730;2023-08-20T03:59:33;12.00;;;11.00;;
5876;SDS011;2964;42.144;24.730;2023-08-20T04:01:59;11.97;;;11.00;;
5876;SDS011;2964;42.144;24.730;2023-08-20T04:04:27;13.23;;;11.73;;
5876;SDS011;2964;42.144;24.730;2023-08-20T04:06:54;14.83;;;10.77;;
5876;SDS011;2964;42.144;24.730;2023-08-20T04:09:21;12.57;;;10.87;;
5876;SDS011;2964;42.144;24.730;2023-08-20T04:11:47;12.47;;;10.87;;
5876;SDS011;2964;42.144;24.730;2023-08-20T04:14:15;11.57;;;10.63;;
5876;SDS011;2964;42.144;24.730;2023-08-20T04:16:41;11.10;;;10.30;;
5876;SDS011;2964;42.144;24.730;2023-08-20T04:19:08;13.43;;;10.70;;
5876;SDS011;2964;42.144;24.730;2023-08-20T04:21:36;11.23;;;10.20;;
5876;SDS011;2964;42.144;24.730;2023-08-20T04:24:03;11.43;;;10.63;;
5876;SDS011;2964;42.144;24.730;2023-08-20T04:26:30;13.73;;;10.40;;
5876;SDS011;2964;42.144;24.730;2023-08-20T04:28:57;11.27;;;9.97;;
5876;SDS011;2964;42.144;24.730;2023-08-20T04:31:23;11.07;;;10.23;;
5876;SDS011;2964;42.144;24.730;2023-08-20T04:33:50;11.03;;;10.00;;
5876;SDS011;2964;42.144;24.730;2023-08-20T04:36:17;16.70;;;10.60;;
5876;SDS011;2964;42.144;24.730;2023-08-20T04:38:45;11.10;;;10.20;;
5876;SDS011;2964;42.144;24.730;2023-08-20T04:41:11;11.30;;;10.17;;
5876;SDS011;2964;42.144;24.730;2023-08-20T04:43:38;11.07;;;10.27;;
5876;SDS011;2964;42.144;24.730;2023-08-20T04:46:04;11.53;;;10.57;;
5876;SDS011;2964;42.144;24.730;2023-08-20T04:48:31;11.27;;;10.37;;
5876;SDS011;2964;42.144;24.730;2023-08-20T04:50:58;11.03;;;9.87;;
5876;SDS011;2964;42.144;24.730;2023-08-20T04:53:25;11.57;;;10.67;;
5876;SDS011;2964;42.144;24.730;2023-08-20T04:55:53;11.37;;;10.43;;
5876;SDS011;2964;42.144;24.730;2023-08-20T04:58:20;11.60;;;10.53;;
5876;SDS011;2964;42.144;24.730;2023-08-20T05:00:46;11.73;;;10.63;;
5876;SDS011;2964;42.144;24.730;2023-08-20T05:03:13;13.77;;;11.23;;
5876;SDS011;2964;42.144;24.730;2023-08-20T05:05:40;12.30;;;11.17;;
5876;SDS011;2964;42.144;24.730;2023-08-20T05:08:06;12.17;;;11.00;;
5876;SDS011;2964;42.144;24.730;2023-08-20T05:10:35;12.50;;;11.33;;
5876;SDS011;2964;42.144;24.730;2023-08-20T05:13:03;11.60;;;10.57;;
5876;SDS011;2964;42.144;24.730;2023-08-20T05:15:30;13.23;;;12.03;;
5876;SDS011;2964;42.144;24.730;2023-08-20T05:17:56;12.30;;;11.27;;
5876;SDS011;2964;42.144;24.730;2023-08-20T05:20:23;12.93;;;11.63;;
5876;SDS011;2964;42.144;24.730;2023-08-20T05:22:50;12.73;;;11.50;;
5876;SDS011;2964;42.144;24.730;2023-08-20T05:25:16;12.80;;;11.80;;
5876;SDS011;2964;42.144;24.730;2023-08-20T05:27:43;13.15;;;11.98;;
5876;SDS011;2964;42.144;24.730;2023-08-20T05:30:11;18.43;;;11.97;;
5876;SDS011;2964;42.144;24.730;2023-08-20T05:32:38;14.80;;;11.77;;
5876;SDS011;2964;42.144;24.730;2023-08-20T05:35:05;13.30;;;12.33;;
5876;SDS011;2964;42.144;24.730;2023-08-20T05:37:32;12.77;;;11.53;;
5876;SDS011;2964;42.144;24.730;2023-08-20T05:39:59;13.45;;;12.20;;
5876;SDS011;2964;42.144;24.730;2023-08-20T05:42:26;19.52;;;12.52;;
5876;SDS011;2964;42.144;24.730;2023-08-20T05:44:53;17.15;;;12.00;;
5876;SDS011;2964;42.144;24.730;2023-08-20T05:47:21;14.30;;;12.82;;
5876;SDS011;2964;42.144;24.730;2023-08-20T05:49:47;17.97;;;13.53;;
5876;SDS011;2964;42.144;24.730;2023-08-20T05:52:14;16.40;;;12.63;;
5876;SDS011;2964;42.144;24.730;2023-08-20T05:54:41;15.27;;;14.10;;
5876;SDS011;2964;42.144;24.730;2023-08-20T05:57:07;15.53;;;12.93;;
5876;SDS011;2964;42.144;24.730;2023-08-20T05:59:34;13.82;;;12.52;;
5876;SDS011;2964;42.144;24.730;2023-08-20T06:02:01;14.55;;;12.38;;
5876;SDS011;2964;42.144;24.730;2023-08-20T06:04:30;14.07;;;12.70;;
5876;SDS011;2964;42.144;24.730;2023-08-20T06:06:56;13.90;;;12.52;;
5876;SDS011;2964;42.144;24.730;2023-08-20T06:09:23;14.15;;;12.93;;
5876;SDS011;2964;42.144;24.730;2023-08-20T06:11:49;14.43;;;13.00;;
5876;SDS011;2964;42.144;24.730;2023-08-20T06:14:16;13.38;;;12.25;;
5876;SDS011;2964;42.144;24.730;2023-08-20T06:16:43;13.63;;;12.38;;
5876;SDS011;2964;42.144;24.730;2023-08-20T06:19:10;15.55;;;12.25;;
5876;SDS011;2964;42.144;24.730;2023-08-20T06:21:38;14.05;;;12.75;;
5876;SDS011;2964;42.144;24.730;2023-08-20T06:24:05;13.57;;;12.35;;
5876;SDS011;2964;42.144;24.730;2023-08-20T06:26:32;13.60;;;12.20;;
5876;SDS011;2964;42.144;24.730;2023-08-20T06:28:59;15.27;;;12.13;;
5876;SDS011;2964;42.144;24.730;2023-08-20T06:31:25;13.65;;;12.45;;
5876;SDS011;2964;42.144;24.730;2023-08-20T06:33:52;13.70;;;12.45;;
5876;SDS011;2964;42.144;24.730;2023-08-20T06:36:19;14.23;;;12.80;;
5876;SDS011;2964;42.144;24.730;2023-08-20T06:38:47;13.52;;;12.40;;
5876;SDS011;2964;42.144;24.730;2023-08-20T06:41:13;13.55;;;12.10;;
5876;SDS011;2964;42.144;24.730;2023-08-20T06:43:40;15.20;;;12.38;;
5876;SDS011;2964;42.144;24.730;2023-08-20T06:46:07;12.73;;;11.52;;
5876;SDS011;2964;42.144;24.730;2023-08-20T06:48:34;12.98;;;11.80;;
5876;SDS011;2964;42.144;24.730;2023-08-20T06:51:07;12.60;;;11.80;;
5876;SDS011;2964;42.144;24.730;2023-08-20T06:53:35;13.88;;;12.55;;
5876;SDS011;2964;42.144;24.730;2023-08-20T06:56:03;13.38;;;12.18;;
5876;SDS011;2964;42.144;24.730;2023-08-20T06:58:30;15.75;;;12.63;;
5876;SDS011;2964;42.144;24.730;2023-08-20T07:00:56;14.20;;;12.63;;
5876;SDS011;2964;42.144;24.730;2023-08-20T07:03:32;12.63;;;11.43;;
5876;SDS011;2964;42.144;24.730;2023-08-20T07:05:58;12.18;;;11.38;;
5876;SDS011;2964;42.144;24.730;2023-08-20T07:08:25;12.68;;;11.75;;
5876;SDS011;2964;42.144;24.730;2023-08-20T07:10:52;13.10;;;11.70;;
5876;SDS011;2964;42.144;24.730;2023-08-20T07:13:20;12.63;;;11.50;;
5876;SDS011;2964;42.144;24.730;2023-08-20T07:15:47;12.60;;;11.43;;
5876;SDS011;2964;42.144;24.730;2023-08-20T07:18:13;12.07;;;11.05;;
5876;SDS011;2964;42.144;24.730;2023-08-20T07:20:41;31.15;;;13.55;;
5876;SDS011;2964;42.144;24.730;2023-08-20T07:23:08;16.50;;;11.63;;
5876;SDS011;2964;42.144;24.730;2023-08-20T07:25:35;16.95;;;12.75;;
5876;SDS011;2964;42.144;24.730;2023-08-20T07:28:02;12.05;;;10.90;;
5876;SDS011;2964;42.144;24.730;2023-08-20T07:30:31;11.77;;;10.93;;
5876;SDS011;2964;42.144;24.730;2023-08-20T07:32:57;13.60;;;11.50;;
5876;SDS011;2964;42.144;24.730;2023-08-20T07:35:24;11.25;;;10.43;;
5876;SDS011;2964;42.144;24.730;2023-08-20T07:37:51;11.18;;;10.48;;
5876;SDS011;2964;42.144;24.730;2023-08-20T07:40:18;11.98;;;11.07;;
5876;SDS011;2964;42.144;24.730;2023-08-20T07:42:45;10.68;;;9.95;;
5876;SDS011;2964;42.144;24.730;2023-08-20T07:45:11;10.00;;;9.43;;
5876;SDS011;2964;42.144;24.730;2023-08-20T07:47:40;12.57;;;11.18;;
5876;SDS011;2964;42.144;24.730;2023-08-20T07:50:07;10.38;;;9.85;;
5876;SDS011;2964;42.144;24.730;2023-08-20T07:52:34;11.30;;;10.23;;
5876;SDS011;2964;42.144;24.730;2023-08-20T07:55:01;10.32;;;9.45;;
5876;SDS011;2964;42.144;24.730;2023-08-20T07:57:28;11.80;;;10.25;;
5876;SDS011;2964;42.144;24.730;2023-08-20T07:59:54;11.30;;;10.30;;
5876;SDS011;2964;42.144;24.730;2023-08-20T08:02:21;9.10;;;8.65;;
5876;SDS011;2964;42.144;24.730;2023-08-20T08:04:49;11.25;;;10.23;;
5876;SDS011;2964;42.144;24.730;2023-08-20T08:07:16;10.40;;;9.50;;
5876;SDS011;2964;42.144;24.730;2023-08-20T08:09:42;10.63;;;9.93;;
5876;SDS011;2964;42.144;24.730;2023-08-20T08:12:10;10.13;;;9.50;;
5876;SDS011;2964;42.144;24.730;2023-08-20T08:14:37;10.15;;;9.40;;
5876;SDS011;2964;42.144;24.730;2023-08-20T08:17:04;9.32;;;8.63;;
5876;SDS011;2964;42.144;24.730;2023-08-20T08:19:30;11.25;;;10.23;;
5876;SDS011;2964;42.144;24.730;2023-08-20T08:21:58;9.48;;;8.88;;
5876;SDS011;2964;42.144;24.730;2023-08-20T08:24:25;9.52;;;9.02;;
5876;SDS011;2964;42.144;24.730;2023-08-20T08:26:52;12.15;;;9.68;;
5876;SDS011;2964;42.144;24.730;2023-08-20T08:29:18;11.20;;;10.25;;
5876;SDS011;2964;42.144;24.730;2023-08-20T08:31:45;10.10;;;9.40;;
5876;SDS011;2964;42.144;24.730;2023-08-20T08:34:12;10.43;;;9.55;;
5876;SDS011;2964;42.144;24.730;2023-08-20T08:36:39;9.73;;;8.73;;
5876;SDS011;2964;42.144;24.730;2023-08-20T08:39:07;9.48;;;8.88;;
5876;SDS011;2964;42.144;24.730;2023-08-20T08:41:35;9.48;;;8.88;;
5876;SDS011;2964;42.144;24.730;2023-08-20T08:44:05;9.10;;;8.57;;
5876;SDS011;2964;42.144;24.730;2023-08-20T08:46:35;9.50;;;9.00;;
5876;SDS011;2964;42.144;24.730;2023-08-20T08:49:02;8.70;;;8.30;;
5876;SDS011;2964;42.144;24.730;2023-08-20T08:51:30;8.63;;;8.02;;
5876;SDS011;2964;42.144;24.730;2023-08-20T08:53:57;10.30;;;9.50;;
5876;SDS011;2964;42.144;24.730;2023-08-20T08:56:26;10.50;;;9.40;;
5876;SDS011;2964;42.144;24.730;2023-08-20T08:58:53;10.10;;;9.40;;
5876;SDS011;2964;42.144;24.730;2023-08-20T09:01:20;9.95;;;9.18;;
5876;SDS011;2964;42.144;24.730;2023-08-20T09:03:47;10.52;;;9.82;;
5876;SDS011;2964;42.144;24.730;2023-08-20T09:06:13;9.88;;;9.00;;
5876;SDS011;2964;42.144;24.730;2023-08-20T09:08:40;10.13;;;9.10;;
5876;SDS011;2964;42.144;24.730;2023-08-20T09:11:07;9.80;;;9.20;;
5876;SDS011;2964;42.144;24.730;2023-08-20T09:13:35;8.68;;;8.20;;
5876;SDS011;2964;42.144;24.730;2023-08-20T09:16:03;8.60;;;7.70;;
5876;SDS011;2964;42.144;24.730;2023-08-20T09:18:30;8.85;;;8.00;;
5876;SDS011;2964;42.144;24.730;2023-08-20T09:20:57;9.60;;;8.95;;
5876;SDS011;2964;42.144;24.730;2023-08-20T09:23:25;8.63;;;8.10;;
5876;SDS011;2964;42.144;24.730;2023-08-20T09:25:55;9.50;;;8.68;;
5876;SDS011;2964;42.144;24.730;2023-08-20T09:28:21;11.98;;;7.80;;
5876;SDS011;2964;42.144;24.730;2023-08-20T09:30:56;9.68;;;8.85;;
5876;SDS011;2964;42.144;24.730;2023-08-20T09:33:23;10.60;;;8.80;;
5876;SDS011;2964;42.144;24.730;2023-08-20T09:35:51;8.98;;;8.45;;
5876;SDS011;2964;42.144;24.730;2023-08-20T09:38:19;11.23;;;9.25;;
5876;SDS011;2964;42.144;24.730;2023-08-20T09:40:47;9.07;;;8.45;;
5876;SDS011;2964;42.144;24.730;2023-08-20T09:43:16;8.75;;;8.18;;
5876;SDS011;2964;42.144;24.730;2023-08-20T09:45:43;8.68;;;7.85;;
5876;SDS011;2964;42.144;24.730;2023-08-20T09:48:14;8.95;;;8.32;;
5876;SDS011;2964;42.144;24.730;2023-08-20T09:50:44;11.15;;;8.65;;
5876;SDS011;2964;42.144;24.730;2023-08-20T09:53:16;8.63;;;8.13;;
5876;SDS011;2964;42.144;24.730;2023-08-20T09:55:48;9.43;;;8.57;;
5876;SDS011;2964;42.144;24.730;2023-08-20T09:58:17;8.88;;;8.27;;
5876;SDS011;2964;42.144;24.730;2023-08-20T10:00:46;9.50;;;8.75;;
5876;SDS011;2964;42.144;24.730;2023-08-20T10:03:16;9.13;;;8.52;;
5876;SDS011;2964;42.144;24.730;2023-08-20T10:05:43;9.30;;;8.60;;
5876;SDS011;2964;42.144;24.730;2023-08-20T10:08:12;9.77;;;9.27;;
5876;SDS011;2964;42.144;24.730;2023-08-20T10:10:39;9.48;;;8.95;;
5876;SDS011;2964;42.144;24.730;2023-08-20T10:13:06;9.38;;;8.57;;
5876;SDS011;2964;42.144;24.730;2023-08-20T10:15:33;9.63;;;9.02;;
5876;SDS011;2964;42.144;24.730;2023-08-20T10:18:01;9.65;;;8.73;;
5876;SDS011;2964;42.144;24.730;2023-08-20T10:20:31;9.35;;;8.45;;
5876;SDS011;2964;42.144;24.730;2023-08-20T10:22:59;9.93;;;9.23;;
5876;SDS011;2964;42.144;24.730;2023-08-20T10:25:29;13.70;;;8.55;;
5876;SDS011;2964;42.144;24.730;2023-08-20T10:28:10;9.95;;;9.02;;
5876;SDS011;2964;42.144;24.730;2023-08-20T10:30:39;9.68;;;9.02;;
5876;SDS011;2964;42.144;24.730;2023-08-20T10:33:29;9.63;;;8.82;;
5876;SDS011;2964;42.144;24.730;2023-08-20T10:35:57;10.48;;;9.57;;
5876;SDS011;2964;42.144;24.730;2023-08-20T10:38:35;8.95;;;8.35;;
5876;SDS011;2964;42.144;24.730;2023-08-20T10:41:03;9.50;;;8.77;;
5876;SDS011;2964;42.144;24.730;2023-08-20T10:43:33;9.18;;;8.38;;
5876;SDS011;2964;42.144;24.730;2023-08-20T10:46:06;12.73;;;9.00;;
5876;SDS011;2964;42.144;24.730;2023-08-20T10:48:39;9.10;;;8.43;;
5876;SDS011;2964;42.144;24.730;2023-08-20T10:51:17;9.50;;;8.75;;
5876;SDS011;2964;42.144;24.730;2023-08-20T10:53:48;9.48;;;8.85;;
5876;SDS011;2964;42.144;24.730;2023-08-20T10:56:37;9.85;;;9.25;;
5876;SDS011;2964;42.144;24.730;2023-08-20T10:59:05;9.27;;;8.73;;
5876;SDS011;2964;42.144;24.730;2023-08-20T11:01:33;9.10;;;8.38;;
5876;SDS011;2964;42.144;24.730;2023-08-20T11:04:00;9.40;;;8.90;;
5876;SDS011;2964;42.144;24.730;2023-08-20T11:06:33;9.63;;;9.00;;
5876;SDS011;2964;42.144;24.730;2023-08-20T11:09:00;10.32;;;9.55;;
5876;SDS011;2964;42.144;24.730;2023-08-20T11:11:28;9.82;;;8.93;;
5876;SDS011;2964;42.144;24.730;2023-08-20T11:13:56;9.73;;;9.02;;
5876;SDS011;2964;42.144;24.730;2023-08-20T11:16:23;9.57;;;8.88;;
5876;SDS011;2964;42.144;24.730;2023-08-20T11:18:51;9.80;;;8.75;;
5876;SDS011;2964;42.144;24.730;2023-08-20T11:21:18;10.15;;;9.25;;
5876;SDS011;2964;42.144;24.730;2023-08-20T11:23:47;9.18;;;8.30;;
5876;SDS011;2964;42.144;24.730;2023-08-20T11:26:14;9.23;;;8.52;;
5876;SDS011;2964;42.144;24.730;2023-08-20T11:28:44;10.30;;;9.32;;
5876;SDS011;2964;42.144;24.730;2023-08-20T11:31:11;8.77;;;8.13;;
5876;SDS011;2964;42.144;24.730;2023-08-20T11:33:38;10.27;;;9.15;;
5876;SDS011;2964;42.144;24.730;2023-08-20T11:36:06;8.70;;;8.10;;
5876;SDS011;2964;42.144;24.730;2023-08-20T11:38:33;9.30;;;8.80;;
5876;SDS011;2964;42.144;24.730;2023-08-20T11:41:01;8.90;;;8.27;;
5876;SDS011;2964;42.144;24.730;2023-08-20T11:43:27;9.13;;;8.30;;
5876;SDS011;2964;42.144;24.730;2023-08-20T11:45:54;10.95;;;8.73;;
5876;SDS011;2964;42.144;24.730;2023-08-20T11:48:22;8.98;;;8.27;;
5876;SDS011;2964;42.144;24.730;2023-08-20T11:50:49;9.38;;;8.43;;
5876;SDS011;2964;42.144;24.730;2023-08-20T11:53:20;9.65;;;8.80;;
5876;SDS011;2964;42.144;24.730;2023-08-20T11:55:48;9.60;;;8.98;;
5876;SDS011;2964;42.144;24.730;2023-08-20T11:58:18;9.43;;;8.90;;
5876;SDS011;2964;42.144;24.730;2023-08-20T12:00:47;10.32;;;9.23;;
5876;SDS011;2964;42.144;24.730;2023-08-20T12:03:15;9.15;;;8.30;;
5876;SDS011;2964;42.144;24.730;2023-08-20T12:05:42;9.57;;;8.75;;
5876;SDS011;2964;42.144;24.730;2023-08-20T12:08:08;9.63;;;8.93;;
5876;SDS011;2964;42.144;24.730;2023-08-20T12:10:42;9.85;;;8.95;;
5876;SDS011;2964;42.144;24.730;2023-08-20T12:13:09;9.13;;;8.45;;
5876;SDS011;2964;42.144;24.730;2023-08-20T12:15:37;8.57;;;8.07;;
5876;SDS011;2964;42.144;24.730;2023-08-20T12:18:04;11.18;;;7.88;;
5876;SDS011;2964;42.144;24.730;2023-08-20T12:20:32;8.95;;;8.35;;
5876;SDS011;2964;42.144;24.730;2023-08-20T12:23:01;12.07;;;8.98;;
5876;SDS011;2964;42.144;24.730;2023-08-20T12:25:30;9.57;;;8.93;;
5876;SDS011;2964;42.144;24.730;2023-08-20T12:27:58;9.23;;;8.63;;
5876;SDS011;2964;42.144;24.730;2023-08-20T12:30:25;9.60;;;8.68;;
5876;SDS011;2964;42.144;24.730;2023-08-20T12:32:53;10.80;;;9.75;;
5876;SDS011;2964;42.144;24.730;2023-08-20T12:35:20;9.25;;;8.27;;
5876;SDS011;2964;42.144;24.730;2023-08-20T12:37:47;10.40;;;9.60;;
5876;SDS011;2964;42.144;24.730;2023-08-20T12:40:13;10.07;;;9.15;;
5876;SDS011;2964;42.144;24.730;2023-08-20T12:42:40;11.07;;;8.48;;
5876;SDS011;2964;42.144;24.730;2023-08-20T12:45:07;11.13;;;8.40;;
5876;SDS011;2964;42.144;24.730;2023-08-20T12:47:35;8.82;;;8.13;;
5876;SDS011;2964;42.144;24.730;2023-08-20T12:50:04;9.43;;;8.77;;
5876;SDS011;2964;42.144;24.730;2023-08-20T12:52:31;8.38;;;7.93;;
5876;SDS011;2964;42.144;24.730;2023-08-20T12:54:58;8.52;;;7.95;;
5876;SDS011;2964;42.144;24.730;2023-08-20T12:57:25;8.93;;;8.10;;
5876;SDS011;2964;42.144;24.730;2023-08-20T12:59:52;10.50;;;9.32;;
5876;SDS011;2964;42.144;24.730;2023-08-20T13:02:19;8.85;;;8.27;;
5876;SDS011;2964;42.144;24.730;2023-08-20T13:04:46;9.18;;;8.32;;
5876;SDS011;2964;42.144;24.730;2023-08-20T13:07:14;8.05;;;7.63;;
5876;SDS011;2964;42.144;24.730;2023-08-20T13:09:42;9.32;;;8.52;;
5876;SDS011;2964;42.144;24.730;2023-08-20T13:12:09;8.52;;;7.63;;
5876;SDS011;2964;42.144;24.730;2023-08-20T13:14:38;9.40;;;8.75;;
5876;SDS011;2964;42.144;24.730;2023-08-20T13:17:06;9.52;;;8.93;;
5876;SDS011;2964;42.144;24.730;2023-08-20T13:19:33;9.00;;;8.40;;
5876;SDS011;2964;42.144;24.730;2023-08-20T13:22:00;13.95;;;9.13;;
5876;SDS011;2964;42.144;24.730;2023-08-20T13:24:28;9.75;;;8.93;;
5876;SDS011;2964;42.144;24.730;2023-08-20T13:26:55;17.73;;;9.38;;
5876;SDS011;2964;42.144;24.730;2023-08-20T13:29:21;10.05;;;8.80;;
5876;SDS011;2964;42.144;24.730;2023-08-20T13:31:48;9.85;;;8.55;;
5876;SDS011;2964;42.144;24.730;2023-08-20T13:34:15;9.35;;;8.77;;
5876;SDS011;2964;42.144;24.730;2023-08-20T13:36:42;9.65;;;8.75;;
5876;SDS011;2964;42.144;24.730;2023-08-20T13:39:08;9.18;;;8.48;;
5876;SDS011;2964;42.144;24.730;2023-08-20T13:41:39;10.23;;;9.38;;
5876;SDS011;2964;42.144;24.730;2023-08-20T13:44:06;9.55;;;8.95;;
5876;SDS011;2964;42.144;24.730;2023-08-20T13:46:34;8.52;;;7.80;;
5876;SDS011;2964;42.144;24.730;2023-08-20T13:49:00;8.77;;;8.25;;
5876;SDS011;2964;42.144;24.730;2023-08-20T13:51:28;8.55;;;7.90;;
5876;SDS011;2964;42.144;24.730;2023-08-20T13:53:55;8.75;;;8.05;;
5876;SDS011;2964;42.144;24.730;2023-08-20T13:56:21;9.18;;;8.55;;
5876;SDS011;2964;42.144;24.730;2023-08-20T13:58:50;8.68;;;7.95;;
5876;SDS011;2964;42.144;24.730;2023-08-20T14:01:17;9.05;;;8.45;;
5876;SDS011;2964;42.144;24.730;2023-08-20T14:03:44;9.73;;;8.93;;
5876;SDS011;2964;42.144;24.730;2023-08-20T14:06:10;8.95;;;8.25;;
5876;SDS011;2964;42.144;24.730;2023-08-20T14:08:37;9.68;;;8.70;;
5876;SDS011;2964;42.144;24.730;2023-08-20T14:11:04;8.50;;;7.90;;
5876;SDS011;2964;42.144;24.730;2023-08-20T14:13:31;8.45;;;8.00;;
5876;SDS011;2964;42.144;24.730;2023-08-20T14:15:59;9.63;;;8.52;;
5876;SDS011;2964;42.144;24.730;2023-08-20T14:18:26;10.18;;;9.48;;
5876;SDS011;2964;42.144;24.730;2023-08-20T14:20:53;11.20;;;10.23;;
5876;SDS011;2964;42.144;24.730;2023-08-20T14:23:19;9.60;;;8.75;;
5876;SDS011;2964;42.144;24.730;2023-08-20T14:25:46;9.95;;;9.15;;
5876;SDS011;2964;42.144;24.730;2023-08-20T14:28:13;9.15;;;8.55;;
5876;SDS011;2964;42.144;24.730;2023-08-20T14:30:39;8.65;;;7.90;;
5876;SDS011;2964;42.144;24.730;2023-08-20T14:33:07;8.30;;;7.80;;
5876;SDS011;2964;42.144;24.730;2023-08-20T14:35:34;10.55;;;8.10;;
5876;SDS011;2964;42.144;24.730;2023-08-20T14:38:01;8.82;;;8.23;;
5876;SDS011;2964;42.144;24.730;2023-08-20T14:40:28;8.50;;;7.82;;
5876;SDS011;2964;42.144;24.730;2023-08-20T14:42:55;9.38;;;8.77;;
5876;SDS011;2964;42.144;24.730;2023-08-20T14:45:21;9.15;;;8.35;;
5876;SDS011;2964;42.144;24.730;2023-08-20T14:47:48;8.40;;;7.90;;